createdAt,value
2023-04-17T00:01:43.382Z,26.15
2023-04-17T00:03:53.686Z,26.67
2023-04-17T00:06:00.971Z,26.02
2023-04-17T00:08:08.409Z,24.23
2023-04-17T00:10:15.690Z,26.10
2023-04-17T00:12:24.614Z,26.35
2023-04-17T00:14:31.845Z,25.88
2023-04-17T00:16:39.277Z,26.85
2023-04-17T00:18:46.362Z,26.13
2023-04-17T00:20:53.391Z,25.75
2023-04-17T00:23:00.455Z,25.10
2023-04-17T00:25:08.264Z,24.98
2023-04-17T00:27:15.402Z,23.23
2023-04-17T00:29:24.070Z,23.30
2023-04-17T00:31:31.511Z,23.40
2023-04-17T00:33:38.837Z,22.10
2023-04-17T00:35:46.328Z,22.60
2023-04-17T00:37:53.355Z,22.80
2023-04-17T00:40:00.637Z,22.90
2023-04-17T00:42:07.775Z,21.65
2023-04-17T00:44:14.950Z,22.23
2023-04-17T00:46:24.232Z,22.38
2023-04-17T00:48:32.027Z,22.38
2023-04-17T00:50:39.571Z,22.80
2023-04-17T00:52:47.491Z,22.85
2023-04-17T00:54:56.456Z,23.27
2023-04-17T00:57:04.390Z,22.70
2023-04-17T00:59:14.848Z,23.67
2023-04-17T01:01:24.780Z,23.60
2023-04-17T01:03:33.346Z,22.27
2023-04-17T01:05:41.011Z,23.00
2023-04-17T01:07:49.511Z,22.92
2023-04-17T01:09:57.461Z,23.38
2023-04-17T01:12:19.274Z,22.15
2023-04-17T01:14:26.770Z,22.90
2023-04-17T01:16:35.564Z,22.17
2023-04-17T01:18:42.924Z,22.67
2023-04-17T01:20:50.158Z,22.48
2023-04-17T01:22:57.394Z,23.15
2023-04-17T01:25:06.210Z,22.33
2023-04-17T01:27:16.362Z,23.15
2023-04-17T01:29:24.772Z,22.50
2023-04-17T01:31:32.522Z,23.08
2023-04-17T01:33:39.496Z,21.17
2023-04-17T01:35:50.214Z,20.80
2023-04-17T01:37:57.353Z,21.63
2023-04-17T01:40:08.061Z,22.35
2023-04-17T01:42:15.021Z,21.75
2023-04-17T01:44:25.355Z,24.45
2023-04-17T01:46:32.503Z,23.02
2023-04-17T01:48:40.478Z,22.48
2023-04-17T01:50:47.464Z,21.73
2023-04-17T01:52:54.578Z,24.30
2023-04-17T01:55:01.593Z,20.08
2023-04-17T01:57:10.942Z,21.70
2023-04-17T01:59:18.018Z,23.15
2023-04-17T02:01:25.424Z,20.92
2023-04-17T02:03:33.045Z,24.20
2023-04-17T02:05:40.276Z,21.20
2023-04-17T02:07:47.318Z,22.30
2023-04-17T02:09:54.896Z,24.42
2023-04-17T02:12:02.071Z,23.88
2023-04-17T02:14:10.930Z,23.42
2023-04-17T02:16:17.847Z,25.23
2023-04-17T02:18:25.164Z,24.35
2023-04-17T02:20:32.390Z,24.17
2023-04-17T02:22:39.526Z,23.42
2023-04-17T02:24:46.876Z,24.08
2023-04-17T02:26:54.656Z,23.40
2023-04-17T02:29:01.696Z,23.00
2023-04-17T02:31:12.410Z,22.95
2023-04-17T02:33:19.473Z,23.73
2023-04-17T02:35:27.689Z,22.58
2023-04-17T02:37:36.296Z,22.55
2023-04-17T02:39:43.652Z,22.15
2023-04-17T02:41:50.609Z,22.83
2023-04-17T02:43:57.891Z,23.55
2023-04-17T02:46:04.920Z,22.85
2023-04-17T02:48:13.996Z,22.65
2023-04-17T02:50:21.036Z,22.85
2023-04-17T02:52:44.754Z,23.02
2023-04-17T02:54:51.775Z,23.35
2023-04-17T02:56:59.826Z,22.80
2023-04-17T02:59:06.908Z,22.42
2023-04-17T03:01:14.208Z,23.15
2023-04-17T03:03:25.968Z,24.17
2023-04-17T03:05:33.621Z,21.35
2023-04-17T03:07:40.753Z,23.20
2023-04-17T03:09:49.678Z,23.25
2023-04-17T03:11:56.856Z,23.35
2023-04-17T03:14:04.960Z,24.00
2023-04-17T03:16:12.208Z,21.92
2023-04-17T03:18:19.888Z,21.55
2023-04-17T03:20:28.659Z,22.88
2023-04-17T03:22:35.890Z,23.10
2023-04-17T03:24:44.152Z,22.83
2023-04-17T03:26:51.792Z,22.30
2023-04-17T03:29:00.671Z,22.25
2023-04-17T03:31:08.409Z,23.60
2023-04-17T03:33:15.791Z,22.52
2023-04-17T03:35:23.638Z,23.33
2023-04-17T03:37:33.073Z,22.77
2023-04-17T03:39:41.176Z,22.40
2023-04-17T03:41:48.158Z,22.05
2023-04-17T03:43:55.492Z,23.52
2023-04-17T03:46:02.751Z,22.77
2023-04-17T03:48:10.630Z,22.88
2023-04-17T03:50:18.276Z,24.02
2023-04-17T03:52:34.411Z,22.77
2023-04-17T03:54:43.630Z,23.52
2023-04-17T03:56:52.199Z,22.00
2023-04-17T03:58:59.326Z,22.33
2023-04-17T04:01:11.930Z,21.73
2023-04-17T04:03:27.646Z,21.38
2023-04-17T04:05:35.462Z,20.70
2023-04-17T04:07:44.276Z,21.05
2023-04-17T04:09:55.468Z,21.67
2023-04-17T04:12:03.196Z,22.55
2023-04-17T04:16:20.539Z,20.65
2023-04-17T04:18:29.244Z,20.25
2023-04-17T04:20:36.328Z,20.77
2023-04-17T04:22:54.820Z,21.70
2023-04-17T04:25:02.007Z,21.88
2023-04-17T04:27:23.829Z,21.65
2023-04-17T04:29:32.187Z,21.92
2023-04-17T04:31:42.884Z,21.85
2023-04-17T04:33:56.084Z,21.45
2023-04-17T04:36:03.842Z,21.90
2023-04-17T04:38:15.146Z,21.25
2023-04-17T04:42:34.074Z,21.25
2023-04-17T04:44:52.621Z,21.05
2023-04-17T04:47:00.380Z,21.27
2023-04-17T04:49:07.798Z,21.80
2023-04-17T04:51:15.851Z,21.52
2023-04-17T04:53:25.697Z,22.00
2023-04-17T04:55:36.465Z,20.60
2023-04-17T04:57:44.306Z,20.95
2023-04-17T04:59:52.515Z,21.77
2023-04-17T05:02:15.515Z,21.17
2023-04-17T05:04:23.501Z,20.33
2023-04-17T05:06:34.797Z,21.92
2023-04-17T05:08:46.126Z,21.38
2023-04-17T05:10:54.948Z,21.17
2023-04-17T05:13:02.997Z,21.63
2023-04-17T05:15:10.956Z,22.08
2023-04-17T05:17:18.303Z,22.10
2023-04-17T05:19:25.524Z,20.77
2023-04-17T05:21:40.124Z,21.25
2023-04-17T05:23:49.925Z,20.42
2023-04-17T05:25:57.149Z,20.70
2023-04-17T05:28:04.228Z,19.83
2023-04-17T05:30:12.997Z,20.90
2023-04-17T05:32:22.192Z,21.42
2023-04-17T05:34:35.912Z,21.58
2023-04-17T05:36:43.861Z,21.63
2023-04-17T05:38:53.093Z,21.10
2023-04-17T05:41:00.073Z,20.40
2023-04-17T05:43:11.809Z,22.08
2023-04-17T05:45:21.851Z,22.35
2023-04-17T05:47:30.046Z,20.80
2023-04-17T05:49:37.237Z,22.00
2023-04-17T05:51:45.036Z,21.85
2023-04-17T05:53:54.790Z,21.80
2023-04-17T05:56:02.759Z,20.20
2023-04-17T06:00:25.650Z,20.85
2023-04-17T06:02:39.054Z,20.85
2023-04-17T06:04:47.057Z,22.27
2023-04-17T06:06:54.516Z,20.63
2023-04-17T06:09:04.042Z,22.13
2023-04-17T06:11:12.303Z,21.65
2023-04-17T06:13:19.375Z,21.15
2023-04-17T06:15:29.582Z,22.23
2023-04-17T06:17:36.624Z,21.13
2023-04-17T06:19:43.842Z,21.55
2023-04-17T06:21:50.923Z,21.45
2023-04-17T06:23:59.541Z,21.02
2023-04-17T06:26:08.357Z,20.77
2023-04-17T06:28:16.111Z,20.70
2023-04-17T06:30:23.440Z,22.50
2023-04-17T06:32:33.923Z,21.60
2023-04-17T06:34:52.544Z,22.88
2023-04-17T06:37:18.877Z,21.90
2023-04-17T06:39:25.959Z,20.92
2023-04-17T06:41:35.747Z,21.25
2023-04-17T06:43:42.728Z,21.88
2023-04-17T06:45:54.290Z,22.40
2023-04-17T06:48:01.426Z,21.38
2023-04-17T06:50:09.750Z,21.63
2023-04-17T06:52:29.739Z,21.63
2023-04-17T06:54:37.015Z,21.35
2023-04-17T06:56:45.682Z,22.55
2023-04-17T06:58:53.178Z,21.73
2023-04-17T07:01:00.106Z,22.27
2023-04-17T07:03:08.656Z,21.60
2023-04-17T07:05:16.289Z,22.35
2023-04-17T07:07:23.606Z,21.13
2023-04-17T07:12:10.386Z,21.05
2023-04-17T07:14:17.980Z,22.25
2023-04-17T07:16:25.369Z,21.60
2023-04-17T07:18:32.555Z,21.30
2023-04-17T07:20:39.676Z,21.52
2023-04-17T07:22:47.112Z,21.13
2023-04-17T07:24:54.138Z,21.73
2023-04-17T07:27:01.321Z,21.67
2023-04-17T07:29:10.546Z,21.13
2023-04-17T07:31:17.965Z,21.48
2023-04-17T07:33:25.281Z,22.13
2023-04-17T07:35:32.417Z,22.48
2023-04-17T07:37:39.838Z,22.50
2023-04-17T07:39:47.532Z,21.70
2023-04-17T07:41:54.870Z,21.50
2023-04-17T07:44:04.262Z,22.17
2023-04-17T07:46:13.442Z,22.13
2023-04-17T07:48:23.170Z,21.75
2023-04-17T07:50:30.565Z,20.52
2023-04-17T07:52:37.543Z,21.70
2023-04-17T07:54:44.771Z,21.42
2023-04-17T07:56:52.207Z,21.77
2023-04-17T07:58:59.494Z,21.42
2023-04-17T08:01:07.856Z,21.77
2023-04-17T08:03:17.491Z,21.98
2023-04-17T08:05:24.981Z,21.17
2023-04-17T08:07:32.222Z,21.27
2023-04-17T08:09:41.460Z,21.45
2023-04-17T08:11:56.915Z,21.60
2023-04-17T08:14:05.685Z,22.25
2023-04-17T08:16:13.587Z,21.85
2023-04-17T08:18:22.165Z,20.67
2023-04-17T08:20:30.600Z,20.45
2023-04-17T08:22:43.729Z,20.75
2023-04-17T08:24:51.885Z,21.17
2023-04-17T08:26:59.027Z,22.02
2023-04-17T08:29:06.662Z,21.05
2023-04-17T08:31:14.841Z,21.67
2023-04-17T08:33:24.141Z,20.13
2023-04-17T08:35:31.024Z,21.05
2023-04-17T08:37:38.251Z,22.48
2023-04-17T08:39:45.277Z,21.17
2023-04-17T08:41:55.328Z,21.60
2023-04-17T08:44:05.225Z,20.45
2023-04-17T08:46:12.968Z,21.42
2023-04-17T08:48:19.896Z,20.52
2023-04-17T08:50:29.175Z,20.52
2023-04-17T08:52:36.318Z,21.35
2023-04-17T08:54:43.774Z,21.05
2023-04-17T08:56:50.719Z,21.13
2023-04-17T08:58:58.361Z,20.65
2023-04-17T09:01:12.796Z,22.80
2023-04-17T09:03:20.053Z,22.10
2023-04-17T09:05:31.325Z,21.02
2023-04-17T09:09:54.692Z,20.58
2023-04-17T09:12:14.803Z,20.48
2023-04-17T09:14:33.898Z,21.35
2023-04-17T09:16:58.890Z,21.02
2023-04-17T09:19:10.388Z,20.42
2023-04-17T09:21:21.224Z,21.35
2023-04-17T09:23:28.681Z,21.48
2023-04-17T09:25:37.354Z,21.80
2023-04-17T09:27:44.221Z,20.90
2023-04-17T09:30:00.469Z,20.92
2023-04-17T09:32:18.632Z,21.70
2023-04-17T09:34:25.891Z,21.70
2023-04-17T09:36:35.743Z,21.85
2023-04-17T09:38:43.186Z,23.15
2023-04-17T09:40:50.202Z,21.17
2023-04-17T09:43:01.690Z,20.77
2023-04-17T09:45:23.365Z,22.67
2023-04-17T09:47:30.786Z,22.40
2023-04-17T09:49:43.247Z,23.20
2023-04-17T09:51:52.738Z,22.27
2023-04-17T09:54:00.938Z,22.70
2023-04-17T09:56:08.836Z,23.05
2023-04-17T09:58:15.967Z,22.58
2023-04-17T10:00:24.733Z,21.90
2023-04-17T10:02:32.625Z,23.00
2023-04-17T10:04:42.719Z,21.98
2023-04-17T10:06:52.177Z,21.65
2023-04-17T10:08:59.664Z,23.38
2023-04-17T10:11:09.280Z,22.58
2023-04-17T10:13:17.314Z,23.38
2023-04-17T10:15:25.395Z,23.92
2023-04-17T10:17:35.197Z,24.80
2023-04-17T10:19:42.729Z,23.75
2023-04-17T10:22:12.798Z,24.60
2023-04-17T10:24:37.129Z,23.73
2023-04-17T10:26:44.772Z,25.00
2023-04-17T10:28:52.978Z,22.90
2023-04-17T10:31:02.271Z,23.90
2023-04-17T10:33:26.701Z,23.98
2023-04-17T10:35:40.330Z,23.23
2023-04-17T10:38:12.501Z,23.13
2023-04-17T10:40:23.529Z,22.85
2023-04-17T10:42:33.978Z,24.30
2023-04-17T10:44:43.470Z,24.63
2023-04-17T10:46:52.289Z,25.13
2023-04-17T10:48:59.568Z,25.48
2023-04-17T10:51:44.952Z,25.85
2023-04-17T10:53:54.888Z,25.98
2023-04-17T10:56:02.860Z,26.90
2023-04-17T10:58:16.828Z,25.17
2023-04-17T11:00:30.775Z,26.67
2023-04-17T11:02:39.335Z,26.85
2023-04-17T11:04:46.475Z,25.73
2023-04-17T11:06:56.570Z,27.63
2023-04-17T11:09:07.535Z,26.50
2023-04-17T11:11:16.792Z,26.42
2023-04-17T11:13:23.901Z,25.88
2023-04-17T11:15:32.269Z,27.83
2023-04-17T11:17:42.164Z,26.85
2023-04-17T11:19:49.536Z,25.63
2023-04-17T11:21:59.536Z,27.15
2023-04-17T11:24:09.288Z,25.17
2023-04-17T11:26:19.382Z,25.73
2023-04-17T11:28:26.454Z,25.25
2023-04-17T11:30:35.520Z,25.23
2023-04-17T11:32:47.193Z,26.75
2023-04-17T11:34:56.673Z,25.23
2023-04-17T11:37:04.347Z,26.15
2023-04-17T11:39:18.916Z,26.38
2023-04-17T11:41:26.032Z,25.55
2023-04-17T11:43:38.742Z,25.90
2023-04-17T11:45:48.029Z,25.25
2023-04-17T11:47:56.462Z,25.75
2023-04-17T11:50:04.392Z,27.20
2023-04-17T11:52:11.877Z,27.17
2023-04-17T11:54:29.627Z,26.95
2023-04-17T11:56:36.732Z,27.13
2023-04-17T11:58:50.418Z,27.15
2023-04-17T12:01:08.709Z,27.77
2023-04-17T12:03:37.809Z,27.00
2023-04-17T12:05:45.094Z,28.50
2023-04-17T12:08:01.850Z,28.33
2023-04-17T12:10:12.355Z,27.10
2023-04-17T12:12:19.433Z,27.67
2023-04-17T12:14:26.766Z,28.20
2023-04-17T12:16:34.270Z,28.75
2023-04-17T12:18:41.651Z,26.98
2023-04-17T12:20:48.889Z,27.95
2023-04-17T12:22:56.415Z,28.58
2023-04-17T12:25:03.348Z,28.58
2023-04-17T12:27:12.218Z,28.90
2023-04-17T12:29:26.458Z,30.15
2023-04-17T12:31:39.833Z,30.85
2023-04-17T12:33:46.825Z,29.42
2023-04-17T12:35:54.378Z,30.60
2023-04-17T12:38:01.381Z,31.13
2023-04-17T12:40:09.645Z,31.60
2023-04-17T12:42:18.530Z,31.15
2023-04-17T12:44:26.027Z,30.75
2023-04-17T12:46:34.460Z,31.42
2023-04-17T12:48:41.742Z,32.45
2023-04-17T12:50:48.824Z,33.05
2023-04-17T12:52:56.108Z,35.00
2023-04-17T12:55:03.193Z,36.05
2023-04-17T12:57:11.193Z,35.85
2023-04-17T12:59:20.321Z,36.65
2023-04-17T13:01:28.341Z,35.85
2023-04-17T13:03:35.542Z,34.05
2023-04-17T13:05:42.911Z,34.60
2023-04-17T13:07:50.587Z,32.55
2023-04-17T13:09:57.980Z,33.92
2023-04-17T13:12:05.605Z,33.08
2023-04-17T13:14:13.408Z,33.30
2023-04-17T13:16:22.505Z,34.58
2023-04-17T13:18:30.117Z,36.65
2023-04-17T13:20:37.284Z,36.35
2023-04-17T13:22:44.698Z,36.38
2023-04-17T13:24:51.877Z,36.60
2023-04-17T13:27:00.997Z,34.35
2023-04-17T13:29:08.023Z,33.42
2023-04-17T13:31:15.223Z,34.85
2023-04-17T13:33:23.868Z,33.55
2023-04-17T13:35:31.050Z,35.00
2023-04-17T13:37:38.245Z,34.03
2023-04-17T13:39:45.986Z,34.40
2023-04-17T13:41:52.857Z,32.88
2023-04-17T13:44:00.189Z,33.75
2023-04-17T13:46:07.319Z,32.83
2023-04-17T13:48:14.798Z,33.08
2023-04-17T13:50:23.642Z,32.42
2023-04-17T13:52:31.371Z,32.88
2023-04-17T13:54:38.354Z,32.88
2023-04-17T13:56:46.654Z,32.83
2023-04-17T13:58:53.940Z,32.03
2023-04-17T14:01:01.334Z,31.17
2023-04-17T14:03:08.957Z,31.65
2023-04-17T14:05:16.346Z,32.38
2023-04-17T14:07:25.228Z,31.05
2023-04-17T14:09:32.664Z,30.90
2023-04-17T14:11:39.744Z,30.67
2023-04-17T14:13:46.977Z,30.50
2023-04-17T14:15:54.816Z,30.10
2023-04-17T14:18:02.667Z,30.13
2023-04-17T14:20:10.841Z,29.00
2023-04-17T14:22:17.757Z,28.33
2023-04-17T14:24:26.677Z,28.85
2023-04-17T14:26:33.957Z,28.77
2023-04-17T14:28:41.449Z,28.65
2023-04-17T14:30:48.456Z,28.63
2023-04-17T14:32:55.728Z,28.92
2023-04-17T14:35:02.790Z,28.58
2023-04-17T14:37:10.552Z,27.65
2023-04-17T14:39:17.517Z,28.05
2023-04-17T14:41:30.744Z,28.48
2023-04-17T14:43:37.712Z,28.55
2023-04-17T14:45:45.512Z,28.30
2023-04-17T14:47:53.079Z,28.17
2023-04-17T14:50:00.537Z,28.13
2023-04-17T14:52:07.924Z,27.58
2023-04-17T14:54:15.651Z,27.73
2023-04-17T14:56:24.893Z,28.15
2023-04-17T14:58:32.167Z,28.42
2023-04-17T15:00:39.448Z,27.90
2023-04-17T15:02:46.813Z,27.02
2023-04-17T15:04:54.900Z,26.55
2023-04-17T15:07:02.243Z,27.70
2023-04-17T15:09:09.596Z,28.45
2023-04-17T15:11:17.010Z,27.30
2023-04-17T15:13:25.826Z,27.17
2023-04-17T15:15:33.112Z,27.48
2023-04-17T15:17:40.304Z,28.15
2023-04-17T15:19:47.527Z,26.45
2023-04-17T15:21:54.662Z,27.52
2023-04-17T15:24:02.203Z,28.00
2023-04-17T15:26:09.508Z,27.35
2023-04-17T15:28:16.927Z,27.05
2023-04-17T15:30:25.740Z,28.90
2023-04-17T15:32:33.641Z,28.80
2023-04-17T15:34:40.729Z,28.63
2023-04-17T15:36:48.516Z,29.13
2023-04-17T15:38:55.694Z,27.17
2023-04-17T15:41:04.572Z,26.92
2023-04-17T15:43:12.927Z,25.75
2023-04-17T15:45:20.365Z,27.02
2023-04-17T15:47:29.098Z,27.63
2023-04-17T15:49:36.520Z,26.33
2023-04-17T15:51:43.496Z,25.85
2023-04-17T15:53:50.830Z,26.00
2023-04-17T15:55:57.929Z,26.30
2023-04-17T15:58:05.337Z,26.23
2023-04-17T16:00:13.408Z,26.35
2023-04-17T16:02:20.480Z,25.52
2023-04-17T16:04:29.766Z,27.08
2023-04-17T16:06:37.355Z,25.90
2023-04-17T16:08:44.279Z,25.48
2023-04-17T16:10:51.660Z,24.98
2023-04-17T16:12:58.998Z,24.95
2023-04-17T16:15:05.973Z,24.55
2023-04-17T16:17:12.899Z,24.20
2023-04-17T16:19:20.181Z,24.05
2023-04-17T16:21:29.621Z,23.58
2023-04-17T16:23:40.029Z,24.05
2023-04-17T16:25:47.273Z,23.15
2023-04-17T16:27:54.594Z,23.08
2023-04-17T16:30:01.926Z,21.90
2023-04-17T16:32:09.162Z,22.92
2023-04-17T16:34:16.237Z,23.27
2023-04-17T16:36:23.572Z,22.48
2023-04-17T16:38:32.244Z,22.25
2023-04-17T16:40:39.473Z,21.88
2023-04-17T16:42:47.269Z,21.23
2023-04-17T16:44:54.507Z,21.92
2023-04-17T16:49:13.195Z,22.20
2023-04-17T16:51:21.317Z,22.00
2023-04-17T16:53:28.655Z,21.05
2023-04-17T16:55:38.961Z,20.95
2023-04-17T16:57:46.713Z,20.63
2023-04-17T16:59:53.784Z,21.67
2023-04-17T17:02:02.781Z,21.73
2023-04-17T17:04:10.193Z,20.92
2023-04-17T17:06:17.529Z,22.58
2023-04-17T17:08:24.607Z,21.73
2023-04-17T17:10:32.044Z,22.25
2023-04-17T17:12:40.821Z,22.38
2023-04-17T17:14:47.943Z,22.83
2023-04-17T17:16:55.101Z,22.98
2023-04-17T17:19:03.024Z,22.77
2023-04-17T17:21:10.342Z,21.42
2023-04-17T17:23:17.746Z,22.73
2023-04-17T17:25:24.824Z,21.58
2023-04-17T17:27:32.056Z,22.88
2023-04-17T17:29:41.131Z,23.15
2023-04-17T17:31:48.340Z,22.77
2023-04-17T17:33:56.884Z,22.90
2023-04-17T17:36:04.011Z,22.00
2023-04-17T17:38:11.991Z,22.73
2023-04-17T17:40:19.244Z,21.92
2023-04-17T17:42:26.428Z,22.60
2023-04-17T17:44:34.228Z,22.48
2023-04-17T17:46:43.457Z,23.98
2023-04-17T17:48:50.494Z,23.10
2023-04-17T17:50:58.689Z,22.60
2023-04-17T17:53:05.873Z,22.55
2023-04-17T17:55:18.171Z,22.70
2023-04-17T17:57:29.128Z,23.35
2023-04-17T17:59:40.234Z,21.48
2023-04-17T18:01:49.119Z,22.67
2023-04-17T18:03:56.557Z,21.58
2023-04-17T18:06:03.598Z,21.25
2023-04-17T18:08:10.782Z,21.42
2023-04-17T18:10:18.083Z,22.30
2023-04-17T18:12:25.455Z,22.10
2023-04-17T18:14:32.736Z,20.52
2023-04-17T18:16:40.235Z,21.42
2023-04-17T18:18:48.993Z,21.50
2023-04-17T18:20:56.439Z,21.40
2023-04-17T18:23:03.614Z,21.23
2023-04-17T18:25:11.825Z,20.23
2023-04-17T18:27:18.746Z,21.55
2023-04-17T18:29:26.186Z,21.40
2023-04-17T18:31:33.732Z,21.63
2023-04-17T18:33:41.012Z,20.17
2023-04-17T18:35:49.726Z,20.33
2023-04-17T18:37:57.498Z,21.23
2023-04-17T18:40:04.708Z,20.70
2023-04-17T18:42:12.243Z,21.08
2023-04-17T18:44:19.189Z,20.85
2023-04-17T18:46:28.092Z,20.50
2023-04-17T18:48:35.222Z,21.00
2023-04-17T18:50:42.504Z,20.83
2023-04-17T18:52:51.321Z,19.77
2023-04-17T18:54:58.662Z,20.52
2023-04-17T18:57:05.544Z,21.48
2023-04-17T18:59:13.052Z,20.70
2023-04-17T19:01:20.190Z,20.05
2023-04-17T19:03:27.733Z,20.15
2023-04-17T19:05:35.224Z,19.48
2023-04-17T19:07:42.579Z,20.27
2023-04-17T19:09:51.340Z,19.67
2023-04-17T19:11:59.457Z,19.77
2023-04-17T19:14:06.576Z,20.38
2023-04-17T19:16:14.227Z,20.05
2023-04-17T19:18:21.448Z,19.25
2023-04-17T19:20:28.732Z,19.00
2023-04-17T19:22:35.824Z,19.27
2023-04-17T19:24:42.952Z,19.33
2023-04-17T19:26:51.764Z,19.17
2023-04-17T19:29:01.043Z,18.85
2023-04-17T19:31:08.194Z,19.00
2023-04-17T19:33:16.081Z,18.95
2023-04-17T19:35:23.254Z,19.70
2023-04-17T19:37:30.697Z,19.23
2023-04-17T19:39:40.894Z,20.38
2023-04-17T19:41:51.808Z,19.60
2023-04-17T19:43:58.942Z,20.15
2023-04-17T19:46:07.006Z,18.92
2023-04-17T19:48:14.018Z,18.88
2023-04-17T19:50:21.199Z,18.60
2023-04-17T19:52:33.603Z,19.15
2023-04-17T19:54:41.607Z,18.70
2023-04-17T19:56:50.423Z,19.30
2023-04-17T19:58:58.988Z,19.02
2023-04-17T20:01:06.545Z,20.95
2023-04-17T20:03:14.038Z,19.70
2023-04-17T20:05:24.639Z,19.70
2023-04-17T20:07:31.808Z,19.60
2023-04-17T20:09:38.685Z,19.45
2023-04-17T20:11:51.398Z,19.38
2023-04-17T20:14:00.165Z,19.20
2023-04-17T20:16:07.143Z,19.10
2023-04-17T20:18:17.301Z,18.55
2023-04-17T20:20:24.688Z,19.45
2023-04-17T20:22:31.768Z,19.65
2023-04-17T20:24:43.501Z,19.85
2023-04-17T20:26:50.627Z,20.77
2023-04-17T20:28:59.663Z,21.05
2023-04-17T20:31:10.377Z,20.38
2023-04-17T20:33:17.910Z,20.23
2023-04-17T20:35:25.656Z,19.98
2023-04-17T20:37:37.102Z,20.48
2023-04-17T20:39:44.070Z,20.67
2023-04-17T20:41:51.656Z,20.40
2023-04-17T20:44:04.020Z,22.42
2023-04-17T20:46:11.588Z,21.40
2023-04-17T20:48:19.003Z,20.10
2023-04-17T20:50:29.494Z,20.23
2023-04-17T20:52:36.365Z,21.48
2023-04-17T20:54:43.701Z,20.45
2023-04-17T20:56:55.958Z,21.20
2023-04-17T20:59:05.744Z,21.70
2023-04-17T21:01:12.735Z,22.27
2023-04-17T21:03:20.133Z,22.98
2023-04-17T21:05:27.959Z,21.38
2023-04-17T21:07:35.467Z,21.80
2023-04-17T21:09:48.770Z,21.38
2023-04-17T21:11:56.103Z,21.02
2023-04-17T21:14:04.830Z,20.92
2023-04-17T21:16:14.792Z,21.45
2023-04-17T21:18:22.255Z,21.48
2023-04-17T21:20:29.438Z,19.48
2023-04-17T21:22:39.639Z,20.33
2023-04-17T21:24:46.626Z,19.38
2023-04-17T21:26:55.233Z,20.42
2023-04-17T21:29:04.464Z,20.40
2023-04-17T21:31:12.019Z,20.40
2023-04-17T21:33:19.441Z,20.40
2023-04-17T21:35:31.343Z,19.90
2023-04-17T21:37:38.263Z,19.63
2023-04-17T21:39:45.548Z,20.27
2023-04-17T21:41:53.253Z,18.83
2023-04-17T21:44:02.633Z,19.10
2023-04-17T21:46:15.292Z,19.77
2023-04-17T21:48:23.332Z,20.10
2023-04-17T21:50:30.324Z,20.23
2023-04-17T21:52:37.801Z,18.52
2023-04-17T21:54:51.125Z,20.13
2023-04-17T21:56:58.665Z,19.20
2023-04-17T21:59:05.845Z,19.10
2023-04-17T22:01:16.618Z,19.67
2023-04-17T22:03:24.362Z,19.63
2023-04-17T22:05:31.851Z,19.52
2023-04-17T22:07:51.737Z,19.75
2023-04-17T22:10:02.769Z,20.67
2023-04-17T22:12:21.555Z,21.02
2023-04-17T22:14:28.838Z,21.27
2023-04-17T22:16:37.881Z,21.65
2023-04-17T22:18:45.558Z,21.38
2023-04-17T22:20:52.638Z,22.40
2023-04-17T22:23:00.032Z,22.05
2023-04-17T22:25:07.362Z,20.90
2023-04-17T22:27:14.693Z,22.23
2023-04-17T22:29:21.975Z,21.38
2023-04-17T22:31:29.653Z,24.20
2023-04-17T22:33:38.450Z,22.02
2023-04-17T22:35:45.571Z,23.73
2023-04-17T22:37:52.801Z,23.48
2023-04-17T22:40:00.392Z,22.65
2023-04-17T22:42:07.730Z,22.92
2023-04-17T22:44:15.200Z,22.23
2023-04-17T22:46:22.396Z,23.17
2023-04-17T22:48:30.599Z,23.95
2023-04-17T22:50:40.345Z,24.95
2023-04-17T22:52:47.848Z,26.15
2023-04-17T22:54:54.810Z,27.50
2023-04-17T22:57:03.372Z,27.13
2023-04-17T22:59:11.220Z,26.30
2023-04-17T23:01:18.893Z,25.13
2023-04-17T23:03:26.154Z,25.00
2023-04-17T23:05:38.539Z,23.00
2023-04-17T23:07:47.362Z,22.60
2023-04-17T23:09:54.807Z,23.33
2023-04-17T23:12:03.991Z,22.60
2023-04-17T23:14:12.244Z,22.40
2023-04-17T23:16:19.445Z,22.63
2023-04-17T23:18:29.419Z,22.83
2023-04-17T23:20:36.503Z,21.98
2023-04-17T23:22:44.010Z,22.58
2023-04-17T23:24:56.392Z,23.00
2023-04-17T23:27:04.346Z,22.88
2023-04-17T23:29:11.473Z,23.48
2023-04-17T23:31:24.507Z,21.95
2023-04-17T23:33:31.466Z,22.35
2023-04-17T23:35:39.065Z,23.17
2023-04-17T23:37:49.330Z,23.75
2023-04-17T23:39:58.390Z,23.02
2023-04-17T23:42:08.812Z,22.42
2023-04-17T23:44:16.137Z,21.92
2023-04-17T23:46:23.451Z,22.48
2023-04-17T23:48:31.064Z,23.20
2023-04-17T23:50:40.087Z,24.67
2023-04-17T23:52:47.217Z,23.88
2023-04-17T23:54:54.757Z,23.00
2023-04-17T23:57:03.938Z,23.63
2023-04-17T23:59:11.324Z,24.27
